createdAt,value
2023-05-05T00:02:09.362Z,19.80
2023-05-05T00:04:36.650Z,19.80
2023-05-05T00:07:04.030Z,19.80
2023-05-05T00:09:31.340Z,19.80
2023-05-05T00:11:58.616Z,19.80
2023-05-05T00:14:25.953Z,19.80
2023-05-05T00:16:53.239Z,19.80
2023-05-05T00:19:20.495Z,19.80
2023-05-05T00:21:47.727Z,19.70
2023-05-05T00:24:14.990Z,19.70
2023-05-05T00:26:42.263Z,19.70
2023-05-05T00:29:09.486Z,19.70
2023-05-05T00:31:37.594Z,19.70
2023-05-05T00:34:04.985Z,19.70
2023-05-05T00:36:32.259Z,19.70
2023-05-05T00:38:59.778Z,19.70
2023-05-05T00:41:27.208Z,19.70
2023-05-05T00:43:54.526Z,19.70
2023-05-05T00:46:28.026Z,19.60
2023-05-05T00:48:55.886Z,19.60
2023-05-05T00:51:24.100Z,19.60
2023-05-05T00:53:52.171Z,19.50
2023-05-05T00:56:21.880Z,19.50
2023-05-05T00:58:49.618Z,19.50
2023-05-05T01:01:17.545Z,19.40
2023-05-05T01:03:45.022Z,19.40
2023-05-05T01:06:32.697Z,19.40
2023-05-05T01:09:38.301Z,19.40
2023-05-05T01:12:15.142Z,19.30
2023-05-05T01:14:49.187Z,19.30
2023-05-05T01:17:22.182Z,19.30
2023-05-05T01:19:59.536Z,19.20
2023-05-05T01:22:38.127Z,19.20
2023-05-05T01:25:41.864Z,19.20
2023-05-05T01:28:11.861Z,19.20
2023-05-05T01:30:48.363Z,19.20
2023-05-05T01:33:23.183Z,19.10
2023-05-05T01:35:55.036Z,19.10
2023-05-05T01:38:37.840Z,19.10
2023-05-05T01:41:17.801Z,19.10
2023-05-05T01:43:47.395Z,19.00
2023-05-05T01:46:17.902Z,19.00
2023-05-05T01:48:47.137Z,19.00
2023-05-05T01:51:17.005Z,19.00
2023-05-05T01:53:47.013Z,19.00
2023-05-05T01:56:15.469Z,18.90
2023-05-05T01:58:46.550Z,18.90
2023-05-05T02:01:16.389Z,18.90
2023-05-05T02:03:45.309Z,18.90
2023-05-05T02:06:14.752Z,18.90
2023-05-05T02:08:43.761Z,18.90
2023-05-05T02:11:12.543Z,18.80
2023-05-05T02:13:42.792Z,18.80
2023-05-05T02:16:16.728Z,18.80
2023-05-05T02:18:47.144Z,18.80
2023-05-05T02:21:17.670Z,18.80
2023-05-05T02:23:51.662Z,18.70
2023-05-05T02:26:21.924Z,18.80
2023-05-05T02:29:02.465Z,18.80
2023-05-05T02:31:32.558Z,18.70
2023-05-05T02:34:01.807Z,18.70
2023-05-05T02:36:38.052Z,18.70
2023-05-05T02:39:12.619Z,18.60
2023-05-05T02:41:43.710Z,18.60
2023-05-05T02:44:23.434Z,18.50
2023-05-05T02:46:51.730Z,18.50
2023-05-05T02:49:19.615Z,18.50
2023-05-05T02:51:47.523Z,18.50
2023-05-05T02:54:22.295Z,18.40
2023-05-05T02:56:51.580Z,18.40
2023-05-05T02:59:47.360Z,18.30
2023-05-05T03:02:27.345Z,18.30
2023-05-05T03:05:00.914Z,18.30
2023-05-05T03:07:54.977Z,18.30
2023-05-05T03:10:30.035Z,18.30
2023-05-05T03:13:02.166Z,18.30
2023-05-05T03:15:43.164Z,18.30
2023-05-05T03:18:12.183Z,18.30
2023-05-05T03:20:43.325Z,18.30
2023-05-05T03:23:20.788Z,18.20
2023-05-05T03:25:50.406Z,18.20
2023-05-05T03:28:27.765Z,18.20
2023-05-05T03:30:57.230Z,18.10
2023-05-05T03:33:25.134Z,18.00
2023-05-05T03:35:52.488Z,17.90
2023-05-05T03:38:19.746Z,17.90
2023-05-05T03:40:47.110Z,17.80
2023-05-05T03:43:19.452Z,17.80
2023-05-05T03:45:47.067Z,17.80
2023-05-05T03:48:14.712Z,17.90
2023-05-05T03:50:45.412Z,17.90
2023-05-05T03:53:13.920Z,17.90
2023-05-05T03:55:42.179Z,17.80
2023-05-05T03:58:09.451Z,17.80
2023-05-05T04:00:36.690Z,17.80
2023-05-05T04:03:04.371Z,17.80
2023-05-05T04:05:31.718Z,17.80
2023-05-05T04:07:59.259Z,17.80
2023-05-05T04:10:26.650Z,17.80
2023-05-05T04:12:54.916Z,17.80
2023-05-05T04:15:22.407Z,17.80
2023-05-05T04:17:49.953Z,17.80
2023-05-05T04:20:17.924Z,17.80
2023-05-05T04:22:46.053Z,17.80
2023-05-05T04:25:13.864Z,17.80
2023-05-05T04:27:41.140Z,17.70
2023-05-05T04:30:09.729Z,17.70
2023-05-05T04:32:39.141Z,17.70
2023-05-05T04:35:07.763Z,17.70
2023-05-05T04:37:35.049Z,17.70
2023-05-05T04:40:02.468Z,17.70
2023-05-05T04:42:32.278Z,17.70
2023-05-05T04:44:59.767Z,17.80
2023-05-05T04:47:27.206Z,17.80
2023-05-05T04:49:55.185Z,17.80
2023-05-05T04:52:23.078Z,17.80
2023-05-05T04:54:50.369Z,17.80
2023-05-05T04:57:18.029Z,17.90
2023-05-05T04:59:45.266Z,17.90
2023-05-05T05:02:13.440Z,17.90
2023-05-05T05:04:41.201Z,17.90
2023-05-05T05:07:09.311Z,17.90
2023-05-05T05:09:36.924Z,17.90
2023-05-05T05:12:04.803Z,17.90
2023-05-05T05:14:37.803Z,17.90
2023-05-05T05:17:05.926Z,17.90
2023-05-05T05:19:34.557Z,18.00
2023-05-05T05:22:02.249Z,18.00
2023-05-05T05:24:31.364Z,18.00
2023-05-05T05:26:58.934Z,18.00
2023-05-05T05:29:27.164Z,18.00
2023-05-05T05:31:55.393Z,18.10
2023-05-05T05:34:22.949Z,18.00
2023-05-05T05:36:50.812Z,18.10
2023-05-05T05:39:18.305Z,18.10
2023-05-05T05:41:45.690Z,18.10
2023-05-05T05:44:13.387Z,18.20
2023-05-05T05:46:41.698Z,18.10
2023-05-05T05:49:09.000Z,18.20
2023-05-05T05:51:36.275Z,18.20
2023-05-05T05:54:03.758Z,18.20
2023-05-05T05:56:31.521Z,18.20
2023-05-05T05:58:58.896Z,18.20
2023-05-05T06:01:26.166Z,18.30
2023-05-05T06:03:53.837Z,18.30
2023-05-05T06:06:21.843Z,18.40
2023-05-05T06:08:49.147Z,18.40
2023-05-05T06:11:16.837Z,18.40
2023-05-05T06:13:44.486Z,18.40
2023-05-05T06:16:11.821Z,18.40
2023-05-05T06:18:41.448Z,18.50
2023-05-05T06:21:08.849Z,18.50
2023-05-05T06:23:36.363Z,18.50
2023-05-05T06:26:06.673Z,18.50
2023-05-05T06:28:33.927Z,18.60
2023-05-05T06:31:01.366Z,18.60
2023-05-05T06:33:28.706Z,18.70
2023-05-05T06:35:56.100Z,18.70
2023-05-05T06:38:23.400Z,18.70
2023-05-05T06:40:50.761Z,18.80
2023-05-05T06:43:18.188Z,18.80
2023-05-05T06:45:52.499Z,18.80
2023-05-05T06:48:20.082Z,18.90
2023-05-05T06:50:47.355Z,18.90
2023-05-05T06:53:14.615Z,18.90
2023-05-05T06:55:46.881Z,19.00
2023-05-05T06:58:14.303Z,19.00
2023-05-05T07:00:42.185Z,19.00
2023-05-05T07:03:09.510Z,19.10
2023-05-05T07:05:36.845Z,19.10
2023-05-05T07:08:04.250Z,19.20
2023-05-05T07:10:31.873Z,19.20
2023-05-05T07:12:59.221Z,19.20
2023-05-05T07:15:28.666Z,19.20
2023-05-05T07:17:57.488Z,19.30
2023-05-05T07:20:25.244Z,19.30
2023-05-05T07:22:52.703Z,19.30
2023-05-05T07:25:20.088Z,19.40
2023-05-05T07:27:47.319Z,19.40
2023-05-05T07:30:18.031Z,19.40
2023-05-05T07:32:46.395Z,19.40
2023-05-05T07:35:13.920Z,19.40
2023-05-05T07:37:41.199Z,19.50
2023-05-05T07:40:09.177Z,19.50
2023-05-05T07:42:36.674Z,19.50
2023-05-05T07:45:04.957Z,19.50
2023-05-05T07:47:32.284Z,19.60
2023-05-05T07:49:59.671Z,19.60
2023-05-05T07:52:43.341Z,19.60
2023-05-05T07:55:12.311Z,19.60
2023-05-05T07:57:39.802Z,19.70
2023-05-05T08:00:07.806Z,19.70
2023-05-05T08:02:41.406Z,19.70
2023-05-05T08:05:09.394Z,19.80
2023-05-05T08:07:41.220Z,19.80
2023-05-05T08:10:12.386Z,19.80
2023-05-05T08:12:39.995Z,19.80
2023-05-05T08:15:08.257Z,19.80
2023-05-05T08:17:55.970Z,19.90
2023-05-05T08:20:28.551Z,19.90
2023-05-05T08:22:56.216Z,20.00
2023-05-05T08:25:23.536Z,20.00
2023-05-05T08:27:50.777Z,20.10
2023-05-05T08:30:20.862Z,20.10
2023-05-05T08:32:48.143Z,20.20
2023-05-05T08:35:15.443Z,20.20
2023-05-05T08:37:42.774Z,20.30
2023-05-05T08:40:16.662Z,20.30
2023-05-05T08:42:47.094Z,20.30
2023-05-05T08:45:14.839Z,20.40
2023-05-05T08:47:43.288Z,20.40
2023-05-05T08:50:11.906Z,20.40
2023-05-05T08:52:45.056Z,20.40
2023-05-05T08:55:14.502Z,20.50
2023-05-05T08:57:51.673Z,20.50
2023-05-05T09:00:22.283Z,20.50
2023-05-05T09:02:50.107Z,20.50
2023-05-05T09:05:18.181Z,20.60
2023-05-05T09:07:47.252Z,20.60
2023-05-05T09:10:14.994Z,20.60
2023-05-05T09:12:42.892Z,20.70
2023-05-05T09:15:14.822Z,20.80
2023-05-05T09:17:42.866Z,20.80
2023-05-05T09:20:11.179Z,20.90
2023-05-05T09:22:44.180Z,20.90
2023-05-05T09:25:13.798Z,21.00
2023-05-05T09:27:43.507Z,21.00
2023-05-05T09:30:14.156Z,21.00
2023-05-05T09:32:51.409Z,21.10
2023-05-05T09:35:19.916Z,21.10
2023-05-05T09:37:47.625Z,21.10
2023-05-05T09:40:16.926Z,21.10
2023-05-05T09:42:45.008Z,21.20
2023-05-05T09:45:18.629Z,21.20
2023-05-05T09:47:46.994Z,21.20
2023-05-05T09:50:17.107Z,21.30
2023-05-05T09:52:57.564Z,21.30
2023-05-05T09:55:25.925Z,21.30
2023-05-05T09:57:53.809Z,21.40
2023-05-05T10:00:21.808Z,21.40
2023-05-05T10:02:49.235Z,21.40
2023-05-05T10:05:18.086Z,21.50
2023-05-05T10:07:47.336Z,21.60
2023-05-05T10:10:17.255Z,21.60
2023-05-05T10:12:47.570Z,21.70
2023-05-05T10:15:16.228Z,21.80
2023-05-05T10:18:02.266Z,21.80
2023-05-05T10:20:35.330Z,21.90
2023-05-05T10:23:07.173Z,21.90
2023-05-05T10:25:41.644Z,22.00
2023-05-05T10:28:11.725Z,22.00
2023-05-05T10:30:44.009Z,22.00
2023-05-05T10:33:31.696Z,22.10
2023-05-05T10:36:03.476Z,22.10
2023-05-05T10:38:32.134Z,22.20
2023-05-05T10:41:01.122Z,22.30
2023-05-05T10:43:30.156Z,22.30
2023-05-05T10:45:58.628Z,22.40
2023-05-05T10:48:37.909Z,22.40
2023-05-05T10:51:27.471Z,22.50
2023-05-05T10:54:16.542Z,22.50
2023-05-05T10:56:43.880Z,22.50
2023-05-05T10:59:39.133Z,22.50
2023-05-05T11:02:25.046Z,22.50
2023-05-05T11:05:10.044Z,22.50
2023-05-05T11:07:37.819Z,22.40
2023-05-05T11:10:10.772Z,22.40
2023-05-05T11:13:02.873Z,22.40
2023-05-05T11:15:30.552Z,22.30
2023-05-05T11:18:03.215Z,22.30
2023-05-05T11:20:36.029Z,22.20
2023-05-05T11:23:03.414Z,22.20
2023-05-05T11:25:40.917Z,22.20
2023-05-05T11:28:24.878Z,22.00
2023-05-05T11:30:55.753Z,21.90
2023-05-05T11:33:23.846Z,21.80
2023-05-05T11:35:58.498Z,21.60
2023-05-05T11:38:56.890Z,21.50
2023-05-05T11:41:33.889Z,21.40
2023-05-05T11:44:18.171Z,21.30
2023-05-05T11:46:51.761Z,21.10
2023-05-05T11:49:33.711Z,21.00
2023-05-05T11:52:13.625Z,20.80
2023-05-05T11:54:49.060Z,20.60
2023-05-05T11:57:30.164Z,20.40
2023-05-05T12:00:03.540Z,20.20
2023-05-05T12:02:32.376Z,20.10
2023-05-05T12:05:01.191Z,20.10
2023-05-05T12:07:31.324Z,20.00
2023-05-05T12:10:07.333Z,20.00
2023-05-05T12:12:46.105Z,20.00
2023-05-05T12:15:13.792Z,20.00
2023-05-05T12:17:44.914Z,20.00
2023-05-05T12:20:13.318Z,20.10
2023-05-05T12:22:41.609Z,20.10
2023-05-05T12:25:09.502Z,20.10
2023-05-05T12:27:37.042Z,20.10
2023-05-05T12:30:13.104Z,20.20
2023-05-05T12:32:40.405Z,20.30
2023-05-05T12:35:09.973Z,20.30
2023-05-05T12:37:37.932Z,20.40
2023-05-05T12:40:06.601Z,20.40
2023-05-05T12:42:39.587Z,20.50
2023-05-05T12:45:19.255Z,20.40
2023-05-05T12:47:47.074Z,20.40
2023-05-05T12:50:15.045Z,20.40
2023-05-05T12:52:51.584Z,20.30
2023-05-05T12:55:19.747Z,20.40
2023-05-05T12:58:04.684Z,20.50
2023-05-05T13:00:32.510Z,20.50
2023-05-05T13:02:59.785Z,20.50
2023-05-05T13:05:36.632Z,20.60
2023-05-05T13:08:04.163Z,20.60
2023-05-05T13:10:31.536Z,20.70
2023-05-05T13:12:59.025Z,20.80
2023-05-05T13:15:27.354Z,20.90
2023-05-05T13:18:01.534Z,20.90
2023-05-05T13:20:28.998Z,21.00
2023-05-05T13:22:57.301Z,21.10
2023-05-05T13:25:24.732Z,21.10
2023-05-05T13:27:51.984Z,21.10
2023-05-05T13:30:20.644Z,21.20
2023-05-05T13:32:48.025Z,21.20
2023-05-05T13:35:16.597Z,21.30
2023-05-05T13:37:45.917Z,21.40
2023-05-05T13:40:14.052Z,21.40
2023-05-05T13:42:41.277Z,21.40
2023-05-05T13:45:09.293Z,21.40
2023-05-05T13:47:37.175Z,21.40
2023-05-05T13:50:04.770Z,21.40
2023-05-05T13:52:33.442Z,21.40
2023-05-05T13:55:00.960Z,21.40
2023-05-05T13:57:28.429Z,21.50
2023-05-05T13:59:55.855Z,21.40
2023-05-05T14:02:23.160Z,21.40
2023-05-05T14:04:50.452Z,21.40
2023-05-05T14:07:17.871Z,21.40
2023-05-05T14:09:45.230Z,21.30
2023-05-05T14:12:12.447Z,21.30
2023-05-05T14:14:40.202Z,21.40
2023-05-05T14:17:07.399Z,21.30
2023-05-05T14:19:34.813Z,21.30
2023-05-05T14:22:02.099Z,21.30
2023-05-05T14:24:29.403Z,21.30
2023-05-05T14:26:57.059Z,21.30
2023-05-05T14:29:24.386Z,21.30
2023-05-05T14:31:52.192Z,21.20
2023-05-05T14:34:19.456Z,21.10
2023-05-05T14:36:46.722Z,21.10
2023-05-05T14:39:13.983Z,20.90
2023-05-05T14:41:41.230Z,20.90
2023-05-05T14:44:08.483Z,20.90
2023-05-05T14:46:35.948Z,20.80
2023-05-05T14:49:03.261Z,20.70
2023-05-05T14:51:31.409Z,20.60
2023-05-05T14:53:58.994Z,20.50
2023-05-05T14:56:26.545Z,20.40
2023-05-05T14:58:54.111Z,20.40
2023-05-05T15:01:21.473Z,20.30
2023-05-05T15:03:48.862Z,20.20
2023-05-05T15:06:16.508Z,20.10
2023-05-05T15:08:43.748Z,20.00
2023-05-05T15:11:11.115Z,19.90
2023-05-05T15:13:40.116Z,19.70
2023-05-05T15:16:10.551Z,19.60
2023-05-05T15:18:38.278Z,19.40
2023-05-05T15:21:05.894Z,19.30
2023-05-05T15:23:33.254Z,19.10
2023-05-05T15:26:01.086Z,19.00
2023-05-05T15:28:28.308Z,18.90
2023-05-05T15:30:55.673Z,18.80
2023-05-05T15:33:23.011Z,18.80
2023-05-05T15:35:50.316Z,18.80
2023-05-05T15:38:17.586Z,18.70
2023-05-05T15:40:47.118Z,18.70
2023-05-05T15:43:15.670Z,18.70
2023-05-05T15:45:42.911Z,18.60
2023-05-05T15:48:10.499Z,18.60
2023-05-05T15:50:37.842Z,18.60
2023-05-05T15:53:05.080Z,18.70
2023-05-05T15:55:32.394Z,18.70
2023-05-05T15:57:59.668Z,18.80
2023-05-05T16:00:26.959Z,18.80
2023-05-05T16:02:54.233Z,19.00
2023-05-05T16:05:23.075Z,19.30
2023-05-05T16:07:50.878Z,19.60
2023-05-05T16:10:19.411Z,19.90
2023-05-05T16:12:46.789Z,19.90
2023-05-05T16:15:14.075Z,19.90
2023-05-05T16:17:41.266Z,20.00
2023-05-05T16:20:09.117Z,20.00
2023-05-05T16:22:36.884Z,20.00
2023-05-05T16:25:04.570Z,20.00
2023-05-05T16:27:31.951Z,19.90
2023-05-05T16:29:59.911Z,19.80
2023-05-05T16:32:27.398Z,19.70
2023-05-05T16:34:55.154Z,19.60
2023-05-05T16:37:22.344Z,19.50
2023-05-05T16:39:49.544Z,19.50
2023-05-05T16:42:16.864Z,19.40
2023-05-05T16:44:44.092Z,19.30
2023-05-05T16:47:11.352Z,19.20
2023-05-05T16:49:38.609Z,19.20
2023-05-05T16:52:05.819Z,19.20
2023-05-05T16:54:33.093Z,19.10
2023-05-05T16:57:00.381Z,19.10
2023-05-05T16:59:28.815Z,19.10
2023-05-05T17:01:57.819Z,19.20
2023-05-05T17:04:25.055Z,19.10
2023-05-05T17:06:52.266Z,19.10
2023-05-05T17:09:19.570Z,19.10
2023-05-05T17:11:46.804Z,19.10
2023-05-05T17:14:14.102Z,19.00
2023-05-05T17:16:41.434Z,19.00
2023-05-05T17:19:08.897Z,18.90
2023-05-05T17:21:38.559Z,18.80
2023-05-05T17:24:06.496Z,18.80
2023-05-05T17:26:33.700Z,18.80
2023-05-05T17:29:00.974Z,18.70
2023-05-05T17:31:28.329Z,18.60
2023-05-05T17:33:55.994Z,18.60
2023-05-05T17:36:23.256Z,18.50
2023-05-05T17:38:50.590Z,18.50
2023-05-05T17:41:17.820Z,18.50
2023-05-05T17:43:45.169Z,18.40
2023-05-05T17:46:12.493Z,18.40
2023-05-05T17:48:39.802Z,18.30
2023-05-05T17:51:07.125Z,18.30
2023-05-05T17:53:34.480Z,18.20
2023-05-05T17:56:01.877Z,18.10
2023-05-05T17:58:29.191Z,18.10
2023-05-05T18:00:56.445Z,18.10
2023-05-05T18:03:23.907Z,18.00
2023-05-05T18:05:51.207Z,18.00
2023-05-05T18:08:18.548Z,17.90
2023-05-05T18:10:45.770Z,17.90
2023-05-05T18:13:13.046Z,17.90
2023-05-05T18:15:40.357Z,17.90
2023-05-05T18:18:07.707Z,17.90
2023-05-05T18:20:35.119Z,17.80
2023-05-05T18:23:02.466Z,17.80
2023-05-05T18:25:29.696Z,17.70
2023-05-05T18:27:56.927Z,17.70
2023-05-05T18:30:24.169Z,17.60
2023-05-05T18:32:51.404Z,17.60
2023-05-05T18:35:19.013Z,17.50
2023-05-05T18:37:46.502Z,17.50
2023-05-05T18:40:13.924Z,17.50
2023-05-05T18:42:41.555Z,17.50
2023-05-05T18:45:10.760Z,17.40
2023-05-05T18:47:41.529Z,17.40
2023-05-05T18:50:09.936Z,17.40
2023-05-05T18:52:37.191Z,17.30
2023-05-05T18:55:04.654Z,17.30
2023-05-05T18:57:32.209Z,17.30
2023-05-05T19:00:00.411Z,17.30
2023-05-05T19:02:27.664Z,17.30
2023-05-05T19:04:54.950Z,17.30
2023-05-05T19:07:33.764Z,17.20
2023-05-05T19:10:04.226Z,17.10
2023-05-05T19:12:31.770Z,17.10
2023-05-05T19:14:59.045Z,17.10
2023-05-05T19:17:26.420Z,17.10
2023-05-05T19:19:53.629Z,17.10
2023-05-05T19:22:22.978Z,17.10
2023-05-05T19:24:50.462Z,17.10
2023-05-05T19:27:17.885Z,17.00
2023-05-05T19:29:45.130Z,17.00
2023-05-05T19:32:12.745Z,16.90
2023-05-05T19:34:42.257Z,16.90
2023-05-05T19:37:09.678Z,16.80
2023-05-05T19:39:37.068Z,16.80
2023-05-05T19:42:04.580Z,16.80
2023-05-05T19:44:34.840Z,16.80
2023-05-05T19:47:02.107Z,16.70
2023-05-05T19:49:29.358Z,16.70
2023-05-05T19:51:58.724Z,16.60
2023-05-05T19:54:27.217Z,16.60
2023-05-05T19:56:57.171Z,16.50
2023-05-05T19:59:24.718Z,16.50
2023-05-05T20:01:52.209Z,16.50
2023-05-05T20:04:19.428Z,16.40
2023-05-05T20:06:46.688Z,16.40
2023-05-05T20:09:13.984Z,16.40
2023-05-05T20:11:41.188Z,16.30
2023-05-05T20:14:08.411Z,16.30
2023-05-05T20:16:36.431Z,16.30
2023-05-05T20:19:05.090Z,16.30
2023-05-05T20:21:33.708Z,16.30
2023-05-05T20:24:01.078Z,16.30
2023-05-05T20:26:28.439Z,16.30
2023-05-05T20:28:55.631Z,16.20
2023-05-05T20:31:23.205Z,16.20
2023-05-05T20:33:50.656Z,16.20
2023-05-05T20:36:18.309Z,16.20
2023-05-05T20:38:45.629Z,16.20
2023-05-05T20:41:12.803Z,16.30
2023-05-05T20:43:40.080Z,16.30
2023-05-05T20:46:12.909Z,16.30
2023-05-05T20:48:42.704Z,16.30
2023-05-05T20:51:10.574Z,16.20
2023-05-05T20:53:37.757Z,16.20
2023-05-05T20:56:08.611Z,16.10
2023-05-05T20:58:36.505Z,16.10
2023-05-05T21:01:03.829Z,16.10
2023-05-05T21:03:31.211Z,16.10
2023-05-05T21:05:58.552Z,16.10
2023-05-05T21:08:26.085Z,16.10
2023-05-05T21:10:53.266Z,16.10
2023-05-05T21:13:20.627Z,16.00
2023-05-05T21:15:50.334Z,16.00
2023-05-05T21:18:18.731Z,16.10
2023-05-05T21:20:45.987Z,16.10
2023-05-05T21:23:13.158Z,16.10
2023-05-05T21:25:40.647Z,16.00
2023-05-05T21:28:07.857Z,16.00
2023-05-05T21:30:35.093Z,16.00
2023-05-05T21:33:02.377Z,16.00
2023-05-05T21:35:29.853Z,15.90
2023-05-05T21:37:57.173Z,15.90
2023-05-05T21:40:24.467Z,15.90
2023-05-05T21:42:51.668Z,15.90
2023-05-05T21:45:18.936Z,15.90
2023-05-05T21:47:46.219Z,15.90
2023-05-05T21:50:13.680Z,15.80
2023-05-05T21:52:41.415Z,15.90
2023-05-05T21:55:10.933Z,15.80
2023-05-05T21:57:38.247Z,15.90
2023-05-05T22:00:07.987Z,15.80
2023-05-05T22:02:39.683Z,15.80
2023-05-05T22:05:07.503Z,15.80
2023-05-05T22:07:34.922Z,15.80
2023-05-05T22:10:03.621Z,15.80
2023-05-05T22:12:30.848Z,15.80
2023-05-05T22:14:58.067Z,15.80
2023-05-05T22:17:25.391Z,15.80
2023-05-05T22:19:52.809Z,15.80
2023-05-05T22:22:20.042Z,15.80
2023-05-05T22:24:47.260Z,15.80
2023-05-05T22:27:14.461Z,15.90
2023-05-05T22:29:41.892Z,15.90
2023-05-05T22:32:09.183Z,15.90
2023-05-05T22:34:36.493Z,15.80
2023-05-05T22:37:03.769Z,15.80
2023-05-05T22:39:31.167Z,15.90
2023-05-05T22:41:58.558Z,15.80
2023-05-05T22:44:25.807Z,15.80
2023-05-05T22:46:53.087Z,15.80
2023-05-05T22:49:20.958Z,15.80
2023-05-05T22:51:48.463Z,15.80
2023-05-05T22:54:15.689Z,15.70
2023-05-05T22:56:42.922Z,15.70
2023-05-05T22:59:10.508Z,15.70
2023-05-05T23:01:38.354Z,15.70
2023-05-05T23:04:06.515Z,15.70
2023-05-05T23:06:33.779Z,15.60
2023-05-05T23:09:01.006Z,15.60
2023-05-05T23:11:28.254Z,15.60
2023-05-05T23:13:55.536Z,15.60
2023-05-05T23:16:22.871Z,15.60
2023-05-05T23:18:51.731Z,15.60
2023-05-05T23:21:19.009Z,15.60
2023-05-05T23:23:46.311Z,15.50
2023-05-05T23:26:13.591Z,15.50
2023-05-05T23:28:40.815Z,15.50
2023-05-05T23:31:09.032Z,15.50
2023-05-05T23:33:36.242Z,15.40
2023-05-05T23:36:03.953Z,15.40
2023-05-05T23:38:31.300Z,15.40
2023-05-05T23:40:58.606Z,15.40
2023-05-05T23:43:25.864Z,15.40
2023-05-05T23:45:53.127Z,15.40
2023-05-05T23:48:21.214Z,15.40
2023-05-05T23:50:48.443Z,15.40
2023-05-05T23:53:16.197Z,15.40
2023-05-05T23:55:43.529Z,15.30
2023-05-05T23:58:10.767Z,15.30
